sensor_id;sensor_type;location;lat;lon;timestamp;temperature;humidity
28023;DHT22;67403;50.104;8.758;2023-02-19T00:01:38;10.40;99.90
28023;DHT22;67403;50.104;8.758;2023-02-19T00:04:07;10.40;99.90
28023;DHT22;67403;50.104;8.758;2023-02-19T00:06:35;10.30;99.90
28023;DHT22;67403;50.104;8.758;2023-02-19T00:09:02;10.40;99.90
28023;DHT22;67403;50.104;8.758;2023-02-19T00:11:32;10.30;99.90
28023;DHT22;67403;50.104;8.758;2023-02-19T00:14:00;10.20;99.90
28023;DHT22;67403;50.104;8.758;2023-02-19T00:16:29;10.20;99.90
28023;DHT22;67403;50.104;8.758;2023-02-19T00:18:57;10.20;99.90
28023;DHT22;67403;50.104;8.758;2023-02-19T00:21:25;10.20;99.90
28023;DHT22;67403;50.104;8.758;2023-02-19T00:23:53;10.20;99.90
28023;DHT22;67403;50.104;8.758;2023-02-19T00:26:21;10.20;99.90
28023;DHT22;67403;50.104;8.758;2023-02-19T00:28:51;10.20;99.90
28023;DHT22;67403;50.104;8.758;2023-02-19T00:31:20;10.30;99.90
28023;DHT22;67403;50.104;8.758;2023-02-19T00:33:48;10.20;99.90
28023;DHT22;67403;50.104;8.758;2023-02-19T00:36:16;10.30;99.90
28023;DHT22;67403;50.104;8.758;2023-02-19T00:38:43;10.30;99.90
28023;DHT22;67403;50.104;8.758;2023-02-19T00:41:11;10.30;99.90
28023;DHT22;67403;50.104;8.758;2023-02-19T00:43:46;10.30;99.90
28023;DHT22;67403;50.104;8.758;2023-02-19T00:46:17;10.30;99.90
28023;DHT22;67403;50.104;8.758;2023-02-19T00:48:45;10.30;99.90
28023;DHT22;67403;50.104;8.758;2023-02-19T00:51:12;10.30;99.90
28023;DHT22;67403;50.104;8.758;2023-02-19T00:53:40;10.30;99.90
28023;DHT22;67403;50.104;8.758;2023-02-19T00:56:07;10.30;99.90
28023;DHT22;67403;50.104;8.758;2023-02-19T00:58:34;10.30;99.90
28023;DHT22;67403;50.104;8.758;2023-02-19T01:01:02;10.30;99.90
28023;DHT22;67403;50.104;8.758;2023-02-19T01:03:31;10.30;99.90
28023;DHT22;67403;50.104;8.758;2023-02-19T01:05:59;10.30;99.90
28023;DHT22;67403;50.104;8.758;2023-02-19T01:08:26;10.30;99.90
28023;DHT22;67403;50.104;8.758;2023-02-19T01:10:53;10.40;99.90
28023;DHT22;67403;50.104;8.758;2023-02-19T01:13:20;10.40;99.90
28023;DHT22;67403;50.104;8.758;2023-02-19T01:15:46;10.30;99.90
28023;DHT22;67403;50.104;8.758;2023-02-19T01:18:13;10.40;99.90
28023;DHT22;67403;50.104;8.758;2023-02-19T01:20:43;10.40;99.90
28023;DHT22;67403;50.104;8.758;2023-02-19T01:23:11;10.30;99.90
28023;DHT22;67403;50.104;8.758;2023-02-19T01:25:39;10.40;99.90
28023;DHT22;67403;50.104;8.758;2023-02-19T01:28:06;10.30;99.90
28023;DHT22;67403;50.104;8.758;2023-02-19T01:30:33;10.30;99.90
28023;DHT22;67403;50.104;8.758;2023-02-19T01:33:02;10.30;99.90
28023;DHT22;67403;50.104;8.758;2023-02-19T01:35:29;10.40;99.90
28023;DHT22;67403;50.104;8.758;2023-02-19T01:37:57;10.30;99.90
28023;DHT22;67403;50.104;8.758;2023-02-19T01:40:25;10.40;99.90
28023;DHT22;67403;50.104;8.758;2023-02-19T01:42:52;10.40;99.90
28023;DHT22;67403;50.104;8.758;2023-02-19T01:45:27;10.40;99.90
28023;DHT22;67403;50.104;8.758;2023-02-19T01:48:08;10.30;99.90
28023;DHT22;67403;50.104;8.758;2023-02-19T01:50:40;10.40;99.90
28023;DHT22;67403;50.104;8.758;2023-02-19T01:53:11;10.40;99.90
28023;DHT22;67403;50.104;8.758;2023-02-19T01:55:39;10.30;99.90
28023;DHT22;67403;50.104;8.758;2023-02-19T01:58:07;10.40;99.90
28023;DHT22;67403;50.104;8.758;2023-02-19T02:00:36;10.40;99.90
28023;DHT22;67403;50.104;8.758;2023-02-19T02:03:03;10.30;99.90
28023;DHT22;67403;50.104;8.758;2023-02-19T02:05:41;10.40;99.90
28023;DHT22;67403;50.104;8.758;2023-02-19T02:08:13;10.30;99.90
28023;DHT22;67403;50.104;8.758;2023-02-19T02:10:58;10.30;99.90
28023;DHT22;67403;50.104;8.758;2023-02-19T02:13:26;10.20;99.90
28023;DHT22;67403;50.104;8.758;2023-02-19T02:15:59;10.20;99.90
28023;DHT22;67403;50.104;8.758;2023-02-19T02:18:39;10.20;99.90
28023;DHT22;67403;50.104;8.758;2023-02-19T02:21:28;10.20;99.90
28023;DHT22;67403;50.104;8.758;2023-02-19T02:24:10;10.20;99.90
28023;DHT22;67403;50.104;8.758;2023-02-19T02:26:48;10.10;99.90
28023;DHT22;67403;50.104;8.758;2023-02-19T02:32:10;10.20;99.90
28023;DHT22;67403;50.104;8.758;2023-02-19T02:34:44;10.20;99.90
28023;DHT22;67403;50.104;8.758;2023-02-19T02:37:13;10.20;99.90
28023;DHT22;67403;50.104;8.758;2023-02-19T02:39:41;10.20;99.90
28023;DHT22;67403;50.104;8.758;2023-02-19T02:42:09;10.10;99.90
28023;DHT22;67403;50.104;8.758;2023-02-19T02:44:55;10.00;99.90
28023;DHT22;67403;50.104;8.758;2023-02-19T02:47:45;10.00;99.90
28023;DHT22;67403;50.104;8.758;2023-02-19T02:50:17;10.00;99.90
28023;DHT22;67403;50.104;8.758;2023-02-19T02:52:47;10.00;99.90
28023;DHT22;67403;50.104;8.758;2023-02-19T02:55:36;9.90;99.90
28023;DHT22;67403;50.104;8.758;2023-02-19T02:58:05;9.90;99.90
28023;DHT22;67403;50.104;8.758;2023-02-19T03:00:33;9.90;99.90
28023;DHT22;67403;50.104;8.758;2023-02-19T03:03:21;9.90;99.90
28023;DHT22;67403;50.104;8.758;2023-02-19T03:05:53;9.90;99.90
28023;DHT22;67403;50.104;8.758;2023-02-19T03:08:23;9.90;99.90
28023;DHT22;67403;50.104;8.758;2023-02-19T03:10:55;10.00;99.90
28023;DHT22;67403;50.104;8.758;2023-02-19T03:13:27;9.90;99.90
28023;DHT22;67403;50.104;8.758;2023-02-19T03:16:17;9.90;99.90
28023;DHT22;67403;50.104;8.758;2023-02-19T03:19:05;10.00;99.90
28023;DHT22;67403;50.104;8.758;2023-02-19T03:21:49;10.00;99.90
28023;DHT22;67403;50.104;8.758;2023-02-19T03:24:20;10.00;99.90
28023;DHT22;67403;50.104;8.758;2023-02-19T03:27:06;10.00;99.90
28023;DHT22;67403;50.104;8.758;2023-02-19T03:29:36;10.00;99.90
28023;DHT22;67403;50.104;8.758;2023-02-19T03:32:08;10.00;99.90
28023;DHT22;67403;50.104;8.758;2023-02-19T03:34:41;10.00;99.90
28023;DHT22;67403;50.104;8.758;2023-02-19T03:37:12;10.00;99.90
28023;DHT22;67403;50.104;8.758;2023-02-19T03:39:39;10.00;99.90
28023;DHT22;67403;50.104;8.758;2023-02-19T03:42:17;10.00;99.90
28023;DHT22;67403;50.104;8.758;2023-02-19T03:44:56;10.10;99.90
28023;DHT22;67403;50.104;8.758;2023-02-19T03:47:28;10.00;99.90
28023;DHT22;67403;50.104;8.758;2023-02-19T03:49:59;10.00;99.90
28023;DHT22;67403;50.104;8.758;2023-02-19T03:52:33;10.00;99.90
28023;DHT22;67403;50.104;8.758;2023-02-19T03:55:06;10.00;99.90
28023;DHT22;67403;50.104;8.758;2023-02-19T03:57:41;10.00;99.90
28023;DHT22;67403;50.104;8.758;2023-02-19T04:00:12;10.00;99.90
28023;DHT22;67403;50.104;8.758;2023-02-19T04:02:45;10.00;99.90
28023;DHT22;67403;50.104;8.758;2023-02-19T04:05:16;10.00;99.90
28023;DHT22;67403;50.104;8.758;2023-02-19T04:07:45;10.00;99.90
28023;DHT22;67403;50.104;8.758;2023-02-19T04:10:15;10.00;99.90
28023;DHT22;67403;50.104;8.758;2023-02-19T04:13:05;10.00;99.90
28023;DHT22;67403;50.104;8.758;2023-02-19T04:15:55;10.00;99.90
28023;DHT22;67403;50.104;8.758;2023-02-19T04:18:45;10.00;99.90
28023;DHT22;67403;50.104;8.758;2023-02-19T04:21:34;10.00;99.90
28023;DHT22;67403;50.104;8.758;2023-02-19T04:24:24;9.90;99.90
28023;DHT22;67403;50.104;8.758;2023-02-19T04:27:13;9.80;99.90
28023;DHT22;67403;50.104;8.758;2023-02-19T04:29:40;9.80;99.90
28023;DHT22;67403;50.104;8.758;2023-02-19T04:32:09;9.80;99.90
28023;DHT22;67403;50.104;8.758;2023-02-19T04:34:36;9.80;99.90
28023;DHT22;67403;50.104;8.758;2023-02-19T04:37:05;9.80;99.90
28023;DHT22;67403;50.104;8.758;2023-02-19T04:39:32;9.90;99.90
28023;DHT22;67403;50.104;8.758;2023-02-19T04:41:59;9.90;99.90
28023;DHT22;67403;50.104;8.758;2023-02-19T04:44:26;9.90;99.90
28023;DHT22;67403;50.104;8.758;2023-02-19T04:46:53;10.00;99.90
28023;DHT22;67403;50.104;8.758;2023-02-19T04:49:20;9.90;99.90
28023;DHT22;67403;50.104;8.758;2023-02-19T04:51:47;10.00;99.90
28023;DHT22;67403;50.104;8.758;2023-02-19T04:54:16;9.90;99.90
28023;DHT22;67403;50.104;8.758;2023-02-19T04:56:42;10.00;99.90
28023;DHT22;67403;50.104;8.758;2023-02-19T04:59:09;10.00;99.90
28023;DHT22;67403;50.104;8.758;2023-02-19T05:01:36;10.00;99.90
28023;DHT22;67403;50.104;8.758;2023-02-19T05:04:03;10.00;99.90
28023;DHT22;67403;50.104;8.758;2023-02-19T05:06:30;10.10;99.90
28023;DHT22;67403;50.104;8.758;2023-02-19T05:08:57;10.10;99.90
28023;DHT22;67403;50.104;8.758;2023-02-19T05:11:25;10.10;99.90
28023;DHT22;67403;50.104;8.758;2023-02-19T05:13:54;10.20;99.90
28023;DHT22;67403;50.104;8.758;2023-02-19T05:16:21;10.20;99.90
28023;DHT22;67403;50.104;8.758;2023-02-19T05:18:48;10.20;99.90
28023;DHT22;67403;50.104;8.758;2023-02-19T05:21:15;10.20;99.90
28023;DHT22;67403;50.104;8.758;2023-02-19T05:23:42;10.20;99.90
28023;DHT22;67403;50.104;8.758;2023-02-19T05:26:11;10.20;99.90
28023;DHT22;67403;50.104;8.758;2023-02-19T05:28:41;10.30;99.90
28023;DHT22;67403;50.104;8.758;2023-02-19T05:31:09;10.30;99.90
28023;DHT22;67403;50.104;8.758;2023-02-19T05:33:37;10.20;99.90
28023;DHT22;67403;50.104;8.758;2023-02-19T05:36:05;10.20;99.90
28023;DHT22;67403;50.104;8.758;2023-02-19T05:38:33;10.20;99.90
28023;DHT22;67403;50.104;8.758;2023-02-19T05:41:07;10.20;99.90
28023;DHT22;67403;50.104;8.758;2023-02-19T05:43:34;10.10;99.90
28023;DHT22;67403;50.104;8.758;2023-02-19T05:46:03;10.10;99.90
28023;DHT22;67403;50.104;8.758;2023-02-19T05:48:29;10.10;99.90
28023;DHT22;67403;50.104;8.758;2023-02-19T05:51:01;10.10;99.90
28023;DHT22;67403;50.104;8.758;2023-02-19T05:53:28;10.20;99.90
28023;DHT22;67403;50.104;8.758;2023-02-19T05:55:55;10.20;99.90
28023;DHT22;67403;50.104;8.758;2023-02-19T05:58:22;10.10;99.90
28023;DHT22;67403;50.104;8.758;2023-02-19T06:00:49;10.20;99.90
28023;DHT22;67403;50.104;8.758;2023-02-19T06:03:18;10.30;99.90
28023;DHT22;67403;50.104;8.758;2023-02-19T06:05:44;10.30;99.90
28023;DHT22;67403;50.104;8.758;2023-02-19T06:08:12;10.30;99.90
28023;DHT22;67403;50.104;8.758;2023-02-19T06:10:39;10.40;99.90
28023;DHT22;67403;50.104;8.758;2023-02-19T06:13:07;10.40;99.90
28023;DHT22;67403;50.104;8.758;2023-02-19T06:15:34;10.30;99.90
28023;DHT22;67403;50.104;8.758;2023-02-19T06:18:01;10.30;99.90
28023;DHT22;67403;50.104;8.758;2023-02-19T06:20:30;10.30;99.90
28023;DHT22;67403;50.104;8.758;2023-02-19T06:22:57;10.30;99.90
28023;DHT22;67403;50.104;8.758;2023-02-19T06:25:24;10.30;99.90
28023;DHT22;67403;50.104;8.758;2023-02-19T06:27:51;10.30;99.90
28023;DHT22;67403;50.104;8.758;2023-02-19T06:30:18;10.30;99.90
28023;DHT22;67403;50.104;8.758;2023-02-19T06:32:45;10.30;99.90
28023;DHT22;67403;50.104;8.758;2023-02-19T06:35:12;10.20;99.90
28023;DHT22;67403;50.104;8.758;2023-02-19T06:37:40;10.30;99.90
28023;DHT22;67403;50.104;8.758;2023-02-19T06:40:08;10.30;99.90
28023;DHT22;67403;50.104;8.758;2023-02-19T06:42:35;10.40;99.90
28023;DHT22;67403;50.104;8.758;2023-02-19T06:45:01;10.30;99.90
28023;DHT22;67403;50.104;8.758;2023-02-19T06:47:30;10.30;99.90
28023;DHT22;67403;50.104;8.758;2023-02-19T06:49:57;10.30;99.90
28023;DHT22;67403;50.104;8.758;2023-02-19T06:52:24;10.30;99.90
28023;DHT22;67403;50.104;8.758;2023-02-19T06:54:52;10.30;99.90
28023;DHT22;67403;50.104;8.758;2023-02-19T06:57:19;10.30;99.90
28023;DHT22;67403;50.104;8.758;2023-02-19T06:59:46;10.30;99.90
28023;DHT22;67403;50.104;8.758;2023-02-19T07:02:13;10.30;99.90
28023;DHT22;67403;50.104;8.758;2023-02-19T07:04:40;10.30;99.90
28023;DHT22;67403;50.104;8.758;2023-02-19T07:07:09;10.30;99.90
28023;DHT22;67403;50.104;8.758;2023-02-19T07:09:37;10.30;99.90
28023;DHT22;67403;50.104;8.758;2023-02-19T07:12:05;10.20;99.90
28023;DHT22;67403;50.104;8.758;2023-02-19T07:14:32;10.20;99.90
28023;DHT22;67403;50.104;8.758;2023-02-19T07:16:59;10.10;99.90
28023;DHT22;67403;50.104;8.758;2023-02-19T07:19:27;10.10;99.90
28023;DHT22;67403;50.104;8.758;2023-02-19T07:21:54;10.10;99.90
28023;DHT22;67403;50.104;8.758;2023-02-19T07:24:20;10.10;99.90
28023;DHT22;67403;50.104;8.758;2023-02-19T07:26:47;10.20;99.90
28023;DHT22;67403;50.104;8.758;2023-02-19T07:29:16;10.10;99.90
28023;DHT22;67403;50.104;8.758;2023-02-19T07:31:42;10.10;99.90
28023;DHT22;67403;50.104;8.758;2023-02-19T07:34:10;10.10;99.90
28023;DHT22;67403;50.104;8.758;2023-02-19T07:36:36;10.10;99.90
28023;DHT22;67403;50.104;8.758;2023-02-19T07:39:04;10.00;99.90
28023;DHT22;67403;50.104;8.758;2023-02-19T07:41:31;9.90;99.90
28023;DHT22;67403;50.104;8.758;2023-02-19T07:43:58;9.80;99.90
28023;DHT22;67403;50.104;8.758;2023-02-19T07:46:26;9.80;99.90
28023;DHT22;67403;50.104;8.758;2023-02-19T07:48:54;9.80;99.90
28023;DHT22;67403;50.104;8.758;2023-02-19T07:51:22;9.80;99.90
28023;DHT22;67403;50.104;8.758;2023-02-19T07:53:50;9.80;99.90
28023;DHT22;67403;50.104;8.758;2023-02-19T07:56:18;9.80;99.90
28023;DHT22;67403;50.104;8.758;2023-02-19T07:58:45;9.90;99.90
28023;DHT22;67403;50.104;8.758;2023-02-19T08:01:14;9.90;99.90
28023;DHT22;67403;50.104;8.758;2023-02-19T08:03:43;10.00;99.90
28023;DHT22;67403;50.104;8.758;2023-02-19T08:06:09;10.00;99.90
28023;DHT22;67403;50.104;8.758;2023-02-19T08:08:37;10.00;99.90
28023;DHT22;67403;50.104;8.758;2023-02-19T08:11:05;10.00;99.90
28023;DHT22;67403;50.104;8.758;2023-02-19T08:13:51;10.00;99.90
28023;DHT22;67403;50.104;8.758;2023-02-19T08:16:18;9.90;99.90
28023;DHT22;67403;50.104;8.758;2023-02-19T08:18:47;9.90;99.90
28023;DHT22;67403;50.104;8.758;2023-02-19T08:21:14;10.00;99.90
28023;DHT22;67403;50.104;8.758;2023-02-19T08:23:42;10.10;99.90
28023;DHT22;67403;50.104;8.758;2023-02-19T08:26:10;10.10;99.90
28023;DHT22;67403;50.104;8.758;2023-02-19T08:28:37;10.20;99.90
28023;DHT22;67403;50.104;8.758;2023-02-19T08:31:05;10.20;99.90
28023;DHT22;67403;50.104;8.758;2023-02-19T08:33:33;10.10;99.90
28023;DHT22;67403;50.104;8.758;2023-02-19T08:36:03;9.90;99.90
28023;DHT22;67403;50.104;8.758;2023-02-19T08:38:30;9.80;99.90
28023;DHT22;67403;50.104;8.758;2023-02-19T08:40:58;9.70;99.90
28023;DHT22;67403;50.104;8.758;2023-02-19T08:43:25;9.50;99.90
28023;DHT22;67403;50.104;8.758;2023-02-19T08:45:53;9.50;99.90
28023;DHT22;67403;50.104;8.758;2023-02-19T08:48:20;9.50;99.90
28023;DHT22;67403;50.104;8.758;2023-02-19T08:50:53;9.50;99.90
28023;DHT22;67403;50.104;8.758;2023-02-19T08:53:22;9.60;99.90
28023;DHT22;67403;50.104;8.758;2023-02-19T08:55:49;9.70;99.90
28023;DHT22;67403;50.104;8.758;2023-02-19T08:58:16;9.70;99.90
28023;DHT22;67403;50.104;8.758;2023-02-19T09:00:43;9.80;99.90
28023;DHT22;67403;50.104;8.758;2023-02-19T09:03:10;9.90;99.90
28023;DHT22;67403;50.104;8.758;2023-02-19T09:05:37;10.00;99.90
28023;DHT22;67403;50.104;8.758;2023-02-19T09:08:04;10.10;99.90
28023;DHT22;67403;50.104;8.758;2023-02-19T09:10:33;10.10;99.90
28023;DHT22;67403;50.104;8.758;2023-02-19T09:12:59;10.10;99.90
28023;DHT22;67403;50.104;8.758;2023-02-19T09:15:27;10.20;99.90
28023;DHT22;67403;50.104;8.758;2023-02-19T09:17:54;10.20;99.90
28023;DHT22;67403;50.104;8.758;2023-02-19T09:20:21;10.20;99.90
28023;DHT22;67403;50.104;8.758;2023-02-19T09:22:48;10.30;99.90
28023;DHT22;67403;50.104;8.758;2023-02-19T09:25:15;10.50;99.90
28023;DHT22;67403;50.104;8.758;2023-02-19T09:27:43;10.50;99.90
28023;DHT22;67403;50.104;8.758;2023-02-19T09:30:10;10.50;99.90
28023;DHT22;67403;50.104;8.758;2023-02-19T09:32:37;10.50;99.90
28023;DHT22;67403;50.104;8.758;2023-02-19T09:35:05;10.50;99.90
28023;DHT22;67403;50.104;8.758;2023-02-19T09:37:32;10.40;99.90
28023;DHT22;67403;50.104;8.758;2023-02-19T09:39:59;10.40;99.90
28023;DHT22;67403;50.104;8.758;2023-02-19T09:42:27;10.40;99.90
28023;DHT22;67403;50.104;8.758;2023-02-19T09:44:57;10.50;99.90
28023;DHT22;67403;50.104;8.758;2023-02-19T09:47:27;10.60;99.90
28023;DHT22;67403;50.104;8.758;2023-02-19T09:49:57;10.70;99.90
28023;DHT22;67403;50.104;8.758;2023-02-19T09:52:29;10.70;99.90
28023;DHT22;67403;50.104;8.758;2023-02-19T09:55:01;10.70;99.90
28023;DHT22;67403;50.104;8.758;2023-02-19T09:57:30;10.60;99.90
28023;DHT22;67403;50.104;8.758;2023-02-19T10:00:04;10.60;99.90
28023;DHT22;67403;50.104;8.758;2023-02-19T10:02:32;10.50;99.90
28023;DHT22;67403;50.104;8.758;2023-02-19T10:04:59;10.40;99.90
28023;DHT22;67403;50.104;8.758;2023-02-19T10:07:32;10.40;99.90
28023;DHT22;67403;50.104;8.758;2023-02-19T10:10:04;10.40;99.90
28023;DHT22;67403;50.104;8.758;2023-02-19T10:12:46;10.50;99.90
28023;DHT22;67403;50.104;8.758;2023-02-19T10:15:19;10.40;99.90
28023;DHT22;67403;50.104;8.758;2023-02-19T10:17:49;10.40;99.90
28023;DHT22;67403;50.104;8.758;2023-02-19T10:20:19;10.30;99.90
28023;DHT22;67403;50.104;8.758;2023-02-19T10:22:51;10.20;99.90
28023;DHT22;67403;50.104;8.758;2023-02-19T10:25:19;10.00;99.90
28023;DHT22;67403;50.104;8.758;2023-02-19T10:27:46;10.00;99.90
28023;DHT22;67403;50.104;8.758;2023-02-19T10:30:18;10.00;99.90
28023;DHT22;67403;50.104;8.758;2023-02-19T10:32:58;10.00;99.90
28023;DHT22;67403;50.104;8.758;2023-02-19T10:35:27;9.90;99.90
28023;DHT22;67403;50.104;8.758;2023-02-19T10:37:55;9.90;99.90
28023;DHT22;67403;50.104;8.758;2023-02-19T10:40:24;9.80;99.90
28023;DHT22;67403;50.104;8.758;2023-02-19T10:42:53;9.80;99.90
28023;DHT22;67403;50.104;8.758;2023-02-19T10:45:26;9.90;99.90
28023;DHT22;67403;50.104;8.758;2023-02-19T10:47:53;9.90;99.90
28023;DHT22;67403;50.104;8.758;2023-02-19T10:50:25;9.90;99.90
28023;DHT22;67403;50.104;8.758;2023-02-19T10:52:55;9.90;99.90
28023;DHT22;67403;50.104;8.758;2023-02-19T10:55:29;9.90;99.90
28023;DHT22;67403;50.104;8.758;2023-02-19T10:57:56;10.00;99.90
28023;DHT22;67403;50.104;8.758;2023-02-19T11:00:26;10.00;99.90
28023;DHT22;67403;50.104;8.758;2023-02-19T11:03:15;10.00;99.90
28023;DHT22;67403;50.104;8.758;2023-02-19T11:05:53;9.90;99.90
28023;DHT22;67403;50.104;8.758;2023-02-19T11:08:24;9.90;99.90
28023;DHT22;67403;50.104;8.758;2023-02-19T11:10:51;10.10;99.90
28023;DHT22;67403;50.104;8.758;2023-02-19T11:13:24;10.50;99.90
28023;DHT22;67403;50.104;8.758;2023-02-19T11:15:54;10.50;99.90
28023;DHT22;67403;50.104;8.758;2023-02-19T11:18:22;10.50;99.90
28023;DHT22;67403;50.104;8.758;2023-02-19T11:20:52;10.80;99.90
28023;DHT22;67403;50.104;8.758;2023-02-19T11:23:24;10.80;99.90
28023;DHT22;67403;50.104;8.758;2023-02-19T11:25:53;10.90;99.90
28023;DHT22;67403;50.104;8.758;2023-02-19T11:28:29;10.90;99.90
28023;DHT22;67403;50.104;8.758;2023-02-19T11:31:13;11.10;99.90
28023;DHT22;67403;50.104;8.758;2023-02-19T11:33:53;11.30;99.90
28023;DHT22;67403;50.104;8.758;2023-02-19T11:36:29;11.20;99.90
28023;DHT22;67403;50.104;8.758;2023-02-19T11:38:58;11.40;99.90
28023;DHT22;67403;50.104;8.758;2023-02-19T11:41:52;12.40;99.90
28023;DHT22;67403;50.104;8.758;2023-02-19T11:44:27;14.10;99.90
28023;DHT22;67403;50.104;8.758;2023-02-19T11:47:12;13.80;99.90
28023;DHT22;67403;50.104;8.758;2023-02-19T11:49:47;13.30;99.90
28023;DHT22;67403;50.104;8.758;2023-02-19T11:52:27;13.10;99.90
28023;DHT22;67403;50.104;8.758;2023-02-19T11:55:05;13.80;99.90
28023;DHT22;67403;50.104;8.758;2023-02-19T11:57:40;14.10;99.90
28023;DHT22;67403;50.104;8.758;2023-02-19T12:00:19;14.00;99.90
28023;DHT22;67403;50.104;8.758;2023-02-19T12:06:13;13.20;99.90
28023;DHT22;67403;50.104;8.758;2023-02-19T12:09:08;13.10;99.90
28023;DHT22;67403;50.104;8.758;2023-02-19T12:11:46;12.60;99.90
28023;DHT22;67403;50.104;8.758;2023-02-19T12:14:38;12.40;99.90
28023;DHT22;67403;50.104;8.758;2023-02-19T12:17:09;12.40;99.90
28023;DHT22;67403;50.104;8.758;2023-02-19T12:19:49;12.80;99.90
28023;DHT22;67403;50.104;8.758;2023-02-19T12:22:28;13.30;99.90
28023;DHT22;67403;50.104;8.758;2023-02-19T12:25:29;14.10;99.90
28023;DHT22;67403;50.104;8.758;2023-02-19T12:28:09;14.00;99.90
28023;DHT22;67403;50.104;8.758;2023-02-19T12:31:06;13.70;99.90
28023;DHT22;67403;50.104;8.758;2023-02-19T12:34:00;12.90;99.90
28023;DHT22;67403;50.104;8.758;2023-02-19T12:36:39;13.10;99.90
28023;DHT22;67403;50.104;8.758;2023-02-19T12:39:15;13.10;99.90
28023;DHT22;67403;50.104;8.758;2023-02-19T12:41:50;13.00;99.90
28023;DHT22;67403;50.104;8.758;2023-02-19T12:44:27;12.50;99.90
28023;DHT22;67403;50.104;8.758;2023-02-19T12:47:00;12.40;99.90
28023;DHT22;67403;50.104;8.758;2023-02-19T12:49:34;12.20;99.90
28023;DHT22;67403;50.104;8.758;2023-02-19T12:52:07;12.10;99.90
28023;DHT22;67403;50.104;8.758;2023-02-19T12:54:40;12.00;99.90
28023;DHT22;67403;50.104;8.758;2023-02-19T12:57:11;11.80;99.90
28023;DHT22;67403;50.104;8.758;2023-02-19T12:59:42;11.60;99.90
28023;DHT22;67403;50.104;8.758;2023-02-19T13:02:14;11.30;99.90
28023;DHT22;67403;50.104;8.758;2023-02-19T13:04:48;11.10;99.90
28023;DHT22;67403;50.104;8.758;2023-02-19T13:07:20;11.10;99.90
28023;DHT22;67403;50.104;8.758;2023-02-19T13:09:53;11.30;99.90
28023;DHT22;67403;50.104;8.758;2023-02-19T13:12:23;11.40;99.90
28023;DHT22;67403;50.104;8.758;2023-02-19T13:14:55;11.40;99.90
28023;DHT22;67403;50.104;8.758;2023-02-19T13:17:26;11.60;99.90
28023;DHT22;67403;50.104;8.758;2023-02-19T13:19:59;11.80;99.90
28023;DHT22;67403;50.104;8.758;2023-02-19T13:22:33;11.80;99.90
28023;DHT22;67403;50.104;8.758;2023-02-19T13:25:21;11.90;99.90
28023;DHT22;67403;50.104;8.758;2023-02-19T13:28:06;12.10;99.90
28023;DHT22;67403;50.104;8.758;2023-02-19T13:30:55;12.10;99.90
28023;DHT22;67403;50.104;8.758;2023-02-19T13:33:35;12.10;99.90
28023;DHT22;67403;50.104;8.758;2023-02-19T13:36:10;11.90;99.90
28023;DHT22;67403;50.104;8.758;2023-02-19T13:38:39;11.90;99.90
28023;DHT22;67403;50.104;8.758;2023-02-19T13:41:19;11.90;99.90
28023;DHT22;67403;50.104;8.758;2023-02-19T13:43:54;12.10;99.90
28023;DHT22;67403;50.104;8.758;2023-02-19T13:46:21;12.00;99.90
28023;DHT22;67403;50.104;8.758;2023-02-19T13:49:34;12.00;99.90
28023;DHT22;67403;50.104;8.758;2023-02-19T13:52:34;12.10;99.90
28023;DHT22;67403;50.104;8.758;2023-02-19T13:58:34;13.30;99.90
28023;DHT22;67403;50.104;8.758;2023-02-19T14:01:02;14.60;99.90
28023;DHT22;67403;50.104;8.758;2023-02-19T14:03:39;14.70;99.90
28023;DHT22;67403;50.104;8.758;2023-02-19T14:06:10;14.30;99.90
28023;DHT22;67403;50.104;8.758;2023-02-19T14:08:53;15.00;99.90
28023;DHT22;67403;50.104;8.758;2023-02-19T14:14:27;13.70;99.90
28023;DHT22;67403;50.104;8.758;2023-02-19T14:17:24;13.90;99.90
28023;DHT22;67403;50.104;8.758;2023-02-19T14:19:57;13.80;99.90
28023;DHT22;67403;50.104;8.758;2023-02-19T14:22:46;13.70;99.90
28023;DHT22;67403;50.104;8.758;2023-02-19T14:28:18;12.90;99.90
28023;DHT22;67403;50.104;8.758;2023-02-19T14:30:49;12.70;99.90
28023;DHT22;67403;50.104;8.758;2023-02-19T14:33:18;12.50;99.90
28023;DHT22;67403;50.104;8.758;2023-02-19T14:35:47;12.50;99.90
28023;DHT22;67403;50.104;8.758;2023-02-19T14:38:19;12.30;99.90
28023;DHT22;67403;50.104;8.758;2023-02-19T14:40:48;12.10;99.90
28023;DHT22;67403;50.104;8.758;2023-02-19T14:43:20;12.00;99.90
28023;DHT22;67403;50.104;8.758;2023-02-19T14:45:51;11.90;99.90
28023;DHT22;67403;50.104;8.758;2023-02-19T14:48:22;11.70;99.90
28023;DHT22;67403;50.104;8.758;2023-02-19T14:50:51;11.60;99.90
28023;DHT22;67403;50.104;8.758;2023-02-19T14:53:21;11.60;99.90
28023;DHT22;67403;50.104;8.758;2023-02-19T14:55:51;11.60;99.90
28023;DHT22;67403;50.104;8.758;2023-02-19T14:58:23;11.60;99.90
28023;DHT22;67403;50.104;8.758;2023-02-19T15:00:50;11.60;99.90
28023;DHT22;67403;50.104;8.758;2023-02-19T15:03:26;11.70;99.90
28023;DHT22;67403;50.104;8.758;2023-02-19T15:05:56;11.90;99.90
28023;DHT22;67403;50.104;8.758;2023-02-19T15:08:26;12.00;99.90
28023;DHT22;67403;50.104;8.758;2023-02-19T15:10:56;12.00;99.90
28023;DHT22;67403;50.104;8.758;2023-02-19T15:13:26;12.00;99.90
28023;DHT22;67403;50.104;8.758;2023-02-19T15:15:53;12.00;99.90
28023;DHT22;67403;50.104;8.758;2023-02-19T15:18:23;11.90;99.90
28023;DHT22;67403;50.104;8.758;2023-02-19T15:20:57;11.90;99.90
28023;DHT22;67403;50.104;8.758;2023-02-19T15:23:24;11.70;99.90
28023;DHT22;67403;50.104;8.758;2023-02-19T15:25:52;11.70;99.90
28023;DHT22;67403;50.104;8.758;2023-02-19T15:28:31;11.70;99.90
28023;DHT22;67403;50.104;8.758;2023-02-19T15:31:10;11.60;99.90
28023;DHT22;67403;50.104;8.758;2023-02-19T15:33:38;11.50;99.90
28023;DHT22;67403;50.104;8.758;2023-02-19T15:36:06;11.40;99.90
28023;DHT22;67403;50.104;8.758;2023-02-19T15:38:34;11.30;99.90
28023;DHT22;67403;50.104;8.758;2023-02-19T15:41:02;11.30;99.90
28023;DHT22;67403;50.104;8.758;2023-02-19T15:43:35;11.20;99.90
28023;DHT22;67403;50.104;8.758;2023-02-19T15:46:06;11.20;99.90
28023;DHT22;67403;50.104;8.758;2023-02-19T15:48:39;11.10;99.90
28023;DHT22;67403;50.104;8.758;2023-02-19T15:51:13;11.10;99.90
28023;DHT22;67403;50.104;8.758;2023-02-19T15:53:44;11.10;99.90
28023;DHT22;67403;50.104;8.758;2023-02-19T15:56:17;11.10;99.90
28023;DHT22;67403;50.104;8.758;2023-02-19T15:58:51;11.10;99.90
28023;DHT22;67403;50.104;8.758;2023-02-19T16:01:21;11.10;99.90
28023;DHT22;67403;50.104;8.758;2023-02-19T16:03:50;11.10;99.90
28023;DHT22;67403;50.104;8.758;2023-02-19T16:06:20;11.00;99.90
28023;DHT22;67403;50.104;8.758;2023-02-19T16:08:59;11.00;99.90
28023;DHT22;67403;50.104;8.758;2023-02-19T16:11:29;11.00;99.90
28023;DHT22;67403;50.104;8.758;2023-02-19T16:14:21;11.00;99.90
28023;DHT22;67403;50.104;8.758;2023-02-19T16:16:49;11.10;99.90